Time;durP1;ratioP1;P1;durP2;ratioP2;P2;SDS_P1;SDS_P2;PMS_P1;PMS_P2;Temp;Humidity;BMP_temperature;BMP_pressure;BME280_temperature;BME280_humidity;BME280_pressure;Samples;Min_cycle;Max_cycle;Signal;HPM_P1;HPM_P2
2021/05/19 02:06:53;;;;;;;13.83;13.27;;;10.50;99.90;;;;;;4963357;28;20507;-71
2021/05/19 02:09:20;;;;;;;13.50;12.90;;;10.60;99.90;;;;;;4974709;28;20607;-71
2021/05/19 02:11:46;;;;;;;13.70;13.10;;;10.60;99.90;;;;;;4974518;28;20451;-71
2021/05/19 02:14:13;;;;;;;15.43;14.50;;;10.70;99.90;;;;;;4974497;28;20454;-71
2021/05/19 02:16:40;;;;;;;13.57;12.90;;;10.70;99.90;;;;;;4975409;28;20458;-71
2021/05/19 02:19:09;;;;;;;14.00;13.40;;;10.60;99.90;;;;;;4975975;28;20461;-71
2021/05/19 02:21:39;;;;;;;13.93;13.13;;;10.60;99.90;;;;;;4974322;28;20490;-72
2021/05/19 02:24:07;;;;;;;13.03;12.40;;;10.50;99.90;;;;;;4974043;28;20436;-72
2021/05/19 02:26:33;;;;;;;14.50;13.70;;;10.50;99.90;;;;;;4974030;28;20456;-72
2021/05/19 02:28:59;;;;;;;13.37;12.83;;;10.60;99.90;;;;;;4974028;28;20452;-72
2021/05/19 02:31:26;;;;;;;13.33;12.73;;;10.50;99.90;;;;;;4973973;28;20476;-72
2021/05/19 02:33:52;;;;;;;13.17;12.57;;;10.60;99.90;;;;;;4973677;28;20515;-72
2021/05/19 02:36:18;;;;;;;13.33;12.80;;;10.60;99.90;;;;;;4973569;28;20466;-72
2021/05/19 02:38:44;;;;;;;12.73;12.23;;;10.50;99.90;;;;;;4973873;28;20450;-72
2021/05/19 02:41:11;;;;;;;12.87;12.33;;;10.50;99.90;;;;;;4973506;28;20514;-72
2021/05/19 02:43:37;;;;;;;13.47;12.87;;;10.50;99.90;;;;;;4973557;28;20478;-72
2021/05/19 02:46:04;;;;;;;13.60;13.00;;;10.50;99.90;;;;;;4973402;28;20460;-72
2021/05/19 02:48:30;;;;;;;13.70;13.10;;;10.40;99.90;;;;;;4973413;28;20467;-72
2021/05/19 02:50:56;;;;;;;12.13;11.63;;;10.40;99.90;;;;;;4973227;28;20518;-72
2021/05/19 02:53:22;;;;;;;12.83;12.23;;;10.40;99.90;;;;;;4973386;28;20459;-72
2021/05/19 02:55:49;;;;;;;12.40;11.90;;;10.40;99.90;;;;;;4973193;28;20447;-71
2021/05/19 02:58:16;;;;;;;13.43;12.80;;;10.60;99.90;;;;;;4973355;28;20455;-71
2021/05/19 03:00:42;;;;;;;12.90;12.20;;;10.50;99.90;;;;;;4972974;28;20458;-71
2021/05/19 03:03:08;;;;;;;12.73;12.23;;;10.40;99.90;;;;;;4984835;28;20477;-71
2021/05/19 03:05:35;;;;;;;13.00;12.40;;;10.50;99.90;;;;;;4992556;28;20474;-71
2021/05/19 03:08:01;;;;;;;13.77;13.10;;;10.50;99.90;;;;;;4992590;28;20945;-71
2021/05/19 03:10:27;;;;;;;14.17;13.53;;;10.50;99.90;;;;;;4992725;28;20499;-71
2021/05/19 03:12:54;;;;;;;13.43;12.80;;;10.50;99.90;;;;;;4992344;28;21015;-71
2021/05/19 03:15:22;;;;;;;12.80;12.20;;;10.50;99.90;;;;;;4992504;28;20454;-71
2021/05/19 03:17:48;;;;;;;13.83;13.03;;;10.50;99.90;;;;;;4992297;28;20952;-71
2021/05/19 03:20:15;;;;;;;14.13;13.43;;;10.40;99.90;;;;;;4992547;28;20450;-71
2021/05/19 03:22:41;;;;;;;12.77;12.13;;;10.50;99.90;;;;;;4992241;28;20466;-71
2021/05/19 03:25:09;;;;;;;13.80;13.20;;;10.50;99.90;;;;;;4992249;28;20572;-72
2021/05/19 03:27:35;;;;;;;13.90;13.30;;;10.40;99.90;;;;;;4992386;28;20455;-72
2021/05/19 03:30:01;;;;;;;14.33;13.73;;;10.40;99.90;;;;;;4992015;28;21022;-71
2021/05/19 03:32:28;;;;;;;14.80;14.00;;;10.40;99.90;;;;;;4992037;28;20462;-71
2021/05/19 03:34:55;;;;;;;13.77;13.17;;;10.40;99.90;;;;;;4991985;28;20775;-71
2021/05/19 03:37:21;;;;;;;13.60;13.00;;;10.40;99.90;;;;;;4991753;28;20454;-71
2021/05/19 03:39:47;;;;;;;15.20;14.50;;;10.40;99.90;;;;;;4992078;28;20447;-71
2021/05/19 03:42:14;;;;;;;14.93;14.20;;;10.30;99.90;;;;;;4991911;28;20497;-71
2021/05/19 03:44:40;;;;;;;14.80;14.20;;;10.30;99.90;;;;;;4991606;28;20455;-71
2021/05/19 03:47:06;;;;;;;15.47;14.77;;;10.30;99.90;;;;;;4992037;28;20754;-71
2021/05/19 03:49:37;;;;;;;14.50;13.80;;;10.30;99.90;;;;;;4991968;28;20541;-71
2021/05/19 03:52:04;;;;;;;13.40;12.70;;;10.30;99.90;;;;;;4991993;28;20858;-71
2021/05/19 03:54:33;;;;;;;13.50;12.90;;;10.30;99.90;;;;;;4991618;28;20457;-71
2021/05/19 03:56:59;;;;;;;14.60;13.90;;;10.20;99.90;;;;;;4991578;28;20457;-71
2021/05/19 03:59:26;;;;;;;13.97;13.37;;;10.30;99.90;;;;;;4990935;28;20500;-71
2021/05/19 04:01:52;;;;;;;14.73;13.93;;;10.30;99.90;;;;;;4991351;28;20805;-71
2021/05/19 04:04:18;;;;;;;13.80;13.10;;;10.20;99.90;;;;;;4991718;28;20461;-71
2021/05/19 04:06:45;;;;;;;14.40;13.87;;;10.20;99.90;;;;;;4991278;28;20486;-71
2021/05/19 04:09:12;;;;;;;14.50;13.90;;;10.20;99.90;;;;;;4991446;28;20454;-71
2021/05/19 04:11:38;;;;;;;14.40;13.80;;;10.20;99.90;;;;;;4991051;28;20866;-70
2021/05/19 04:14:04;;;;;;;14.50;13.90;;;10.30;99.90;;;;;;4991192;28;20458;-70
2021/05/19 04:16:30;;;;;;;13.23;12.63;;;10.40;99.90;;;;;;4991192;28;20952;-70
2021/05/19 04:18:57;;;;;;;13.83;13.23;;;10.30;99.90;;;;;;4991093;28;20964;-70
2021/05/19 04:21:23;;;;;;;15.63;14.23;;;10.40;99.90;;;;;;4990925;28;20451;-71
2021/05/19 04:23:50;;;;;;;13.10;12.20;;;10.30;99.90;;;;;;4991099;28;20505;-71
2021/05/19 04:26:16;;;;;;;12.97;12.40;;;10.30;99.90;;;;;;4991239;28;20513;-70
2021/05/19 04:28:44;;;;;;;14.43;13.70;;;10.40;99.90;;;;;;4990791;28;20450;-71
2021/05/19 04:31:10;;;;;;;13.10;12.43;;;10.40;99.90;;;;;;4990962;28;20547;-71
2021/05/19 04:33:37;;;;;;;13.37;12.67;;;10.40;99.90;;;;;;4990998;28;20465;-71
2021/05/19 04:36:04;;;;;;;12.93;12.33;;;10.40;99.90;;;;;;4990917;28;20455;-71
2021/05/19 04:38:30;;;;;;;12.00;11.50;;;10.40;99.90;;;;;;4990845;28;20914;-71
2021/05/19 04:40:57;;;;;;;14.00;13.50;;;10.50;99.90;;;;;;4990741;28;20952;-71
2021/05/19 04:43:24;;;;;;;14.83;13.63;;;10.50;99.90;;;;;;4990863;28;20457;-71
2021/05/19 04:45:51;;;;;;;13.93;13.33;;;10.60;99.90;;;;;;4990930;28;20557;-69
2021/05/19 04:48:17;;;;;;;15.10;14.40;;;10.50;99.90;;;;;;4991001;28;20454;-72
2021/05/19 04:50:43;;;;;;;15.77;15.07;;;10.40;99.90;;;;;;4990588;28;20490;-70
2021/05/19 04:53:10;;;;;;;20.17;18.97;;;10.30;99.90;;;;;;4990629;28;20451;-72
2021/05/19 04:55:37;;;;;;;23.33;22.20;;;10.40;99.90;;;;;;4991061;28;20454;-73
2021/05/19 04:58:05;;;;;;;23.40;22.40;;;10.30;99.90;;;;;;4990921;28;20466;-73
2021/05/19 05:00:32;;;;;;;23.20;22.27;;;10.30;99.90;;;;;;4991030;28;20948;-72
2021/05/19 05:02:58;;;;;;;22.60;21.70;;;10.20;99.90;;;;;;4990896;28;20908;-72
2021/05/19 05:05:25;;;;;;;23.40;22.33;;;10.20;99.90;;;;;;4990727;28;20462;-72
2021/05/19 05:07:51;;;;;;;22.23;21.23;;;10.30;99.90;;;;;;4990698;28;20461;-71
2021/05/19 05:10:17;;;;;;;22.70;21.50;;;10.30;99.90;;;;;;4991090;28;20548;-72
2021/05/19 05:12:45;;;;;;;23.03;22.13;;;10.30;99.90;;;;;;4994055;28;21019;-72
2021/05/19 05:15:15;;;;;;;23.00;22.00;;;10.40;99.90;;;;;;4994803;28;20478;-72
2021/05/19 05:17:41;;;;;;;22.00;21.10;;;10.40;99.90;;;;;;4994554;28;20457;-72
2021/05/19 05:20:09;;;;;;;23.07;22.07;;;10.30;99.90;;;;;;4994701;28;20527;-71
2021/05/19 05:22:36;;;;;;;21.73;20.83;;;10.30;99.90;;;;;;4994549;28;20861;-71
2021/05/19 05:25:03;;;;;;;21.20;20.30;;;10.30;99.90;;;;;;4994718;28;20481;-71
2021/05/19 05:27:29;;;;;;;21.37;20.13;;;10.40;99.90;;;;;;4994693;28;20524;-71
2021/05/19 05:29:55;;;;;;;21.80;20.90;;;10.50;99.90;;;;;;4994369;28;20482;-71
2021/05/19 05:32:23;;;;;;;21.43;20.53;;;10.50;99.90;;;;;;4994371;28;20459;-71
2021/05/19 05:34:49;;;;;;;21.60;20.47;;;10.70;99.90;;;;;;4994559;28;20450;-71
2021/05/19 05:37:16;;;;;;;20.10;19.20;;;10.90;99.90;;;;;;4994460;28;20454;-70
2021/05/19 05:39:42;;;;;;;19.37;18.57;;;11.00;99.90;;;;;;4994335;28;20454;-70
2021/05/19 05:42:08;;;;;;;19.47;18.40;;;11.00;99.90;;;;;;4994378;28;20759;-70
2021/05/19 05:44:35;;;;;;;19.23;18.00;;;11.00;99.90;;;;;;4994323;28;20455;-70
2021/05/19 05:47:01;;;;;;;17.40;16.60;;;11.00;99.90;;;;;;4994307;28;20458;-71
2021/05/19 05:49:28;;;;;;;16.90;16.07;;;11.00;99.90;;;;;;4993963;28;20462;-71
2021/05/19 05:51:54;;;;;;;16.40;15.20;;;11.00;99.90;;;;;;4994212;28;20469;-71
2021/05/19 05:54:20;;;;;;;15.90;14.90;;;11.10;99.90;;;;;;4994115;28;20580;-71
2021/05/19 05:56:47;;;;;;;15.73;14.83;;;11.10;99.90;;;;;;4994127;28;20937;-72
2021/05/19 05:59:13;;;;;;;15.50;14.80;;;11.10;99.90;;;;;;4993682;28;20464;-72
2021/05/19 06:01:39;;;;;;;14.50;13.90;;;11.20;99.90;;;;;;4994101;28;21020;-72
2021/05/19 06:04:05;;;;;;;15.30;14.60;;;11.40;99.90;;;;;;4993852;28;20457;-72
2021/05/19 06:06:32;;;;;;;15.10;14.40;;;11.60;99.90;;;;;;4993885;28;20490;-72
2021/05/19 06:08:59;;;;;;;15.60;14.80;;;11.90;99.90;;;;;;4993630;28;20450;-73
2021/05/19 06:11:25;;;;;;;14.83;14.07;;;12.00;99.90;;;;;;4993792;28;20482;-72
2021/05/19 06:13:51;;;;;;;15.23;14.20;;;12.20;99.90;;;;;;4993689;28;20463;-73
2021/05/19 06:16:17;;;;;;;15.83;14.90;;;12.40;99.90;;;;;;4993874;28;20454;-73
2021/05/19 06:18:43;;;;;;;14.20;13.60;;;12.60;99.90;;;;;;4993593;28;20447;-73
2021/05/19 06:21:09;;;;;;;14.67;13.97;;;12.80;99.90;;;;;;4993192;28;20446;-73
2021/05/19 06:23:36;;;;;;;14.10;13.60;;;13.10;99.90;;;;;;4992819;28;20459;-72
2021/05/19 06:26:02;;;;;;;14.33;13.73;;;13.30;99.90;;;;;;4993513;28;20454;-72
2021/05/19 06:28:29;;;;;;;12.60;12.10;;;13.70;99.90;;;;;;4993422;28;20463;-73
2021/05/19 06:30:56;;;;;;;13.10;12.60;;;14.60;99.90;;;;;;4993201;28;20497;-73
2021/05/19 06:33:22;;;;;;;13.50;12.97;;;15.50;99.90;;;;;;4993158;28;20451;-73
2021/05/19 06:35:48;;;;;;;13.80;13.20;;;16.30;99.90;;;;;;4993257;28;20810;-73
2021/05/19 06:38:14;;;;;;;13.40;12.80;;;16.70;99.90;;;;;;4992880;28;20451;-73
2021/05/19 06:40:41;;;;;;;12.73;12.23;;;16.90;99.90;;;;;;4992798;28;20454;-74
2021/05/19 06:43:09;;;;;;;13.20;12.70;;;16.70;99.90;;;;;;4992908;28;20454;-73
2021/05/19 06:45:35;;;;;;;12.70;12.10;;;17.00;99.90;;;;;;4993186;28;20462;-72
2021/05/19 06:48:02;;;;;;;12.97;12.47;;;17.60;99.90;;;;;;4993722;28;20622;-75
2021/05/19 06:50:28;;;;;;;13.80;12.80;;;18.20;99.90;;;;;;4993077;28;20501;-75
2021/05/19 06:52:54;;;;;;;12.60;12.10;;;18.70;99.90;;;;;;4993393;28;20968;-75
2021/05/19 06:55:22;;;;;;;12.63;12.03;;;19.00;99.90;;;;;;4993476;28;20462;-74
2021/05/19 06:57:49;;;;;;;12.63;11.83;;;19.00;99.90;;;;;;4993101;28;20463;-74
2021/05/19 07:00:16;;;;;;;11.87;11.47;;;19.60;99.90;;;;;;4992855;28;20458;-73
2021/05/19 07:02:43;;;;;;;13.83;12.93;;;20.30;97.80;;;;;;4992705;28;20471;-74
2021/05/19 07:05:10;;;;;;;13.70;13.10;;;20.90;95.70;;;;;;4992769;28;20817;-74
2021/05/19 07:07:36;;;;;;;12.70;12.20;;;21.20;95.80;;;;;;4992607;28;20482;-74
2021/05/19 07:10:04;;;;;;;13.00;12.60;;;21.60;93.90;;;;;;4992465;28;20482;-74
2021/05/19 07:12:30;;;;;;;13.40;12.90;;;22.20;94.20;;;;;;4989146;28;20480;-74
2021/05/19 07:15:00;;;;;;;13.83;13.13;;;22.30;94.10;;;;;;4984958;28;20658;-73
2021/05/19 07:17:26;;;;;;;13.17;12.67;;;23.40;91.60;;;;;;4983263;28;21018;-72
2021/05/19 07:19:52;;;;;;;13.67;12.97;;;23.30;90.40;;;;;;4992537;28;20827;-72
2021/05/19 07:22:18;;;;;;;14.47;13.87;;;22.10;92.50;;;;;;4977385;28;20480;-72
2021/05/19 07:24:47;;;;;;;13.50;13.00;;;21.50;92.80;;;;;;4992550;28;20447;-72
2021/05/19 07:27:13;;;;;;;14.27;13.57;;;20.90;94.30;;;;;;4992405;28;20455;-73
2021/05/19 07:29:40;;;;;;;15.03;14.13;;;20.90;92.70;;;;;;4992410;28;20846;-72
2021/05/19 07:32:07;;;;;;;14.27;13.57;;;20.40;93.20;;;;;;4992166;28;20447;-73
2021/05/19 07:34:33;;;;;;;13.73;13.20;;;20.70;92.50;;;;;;4991654;28;20451;-73
2021/05/19 07:36:59;;;;;;;15.00;14.30;;;20.80;92.90;;;;;;4992308;28;20870;-74
2021/05/19 07:39:26;;;;;;;13.00;12.37;;;21.40;92.80;;;;;;4992145;28;20469;-74
2021/05/19 07:41:52;;;;;;;15.10;14.50;;;22.00;93.60;;;;;;4992086;28;20449;-74
2021/05/19 07:44:18;;;;;;;17.97;17.27;;;21.90;93.40;;;;;;4992122;28;20949;-74
2021/05/19 07:46:44;;;;;;;22.60;21.73;;;21.10;95.50;;;;;;4992145;28;20802;-72
2021/05/19 07:49:12;;;;;;;32.20;30.80;;;19.70;99.90;;;;;;4991870;28;20513;-74
2021/05/19 07:51:38;;;;;;;37.40;35.47;;;19.20;99.90;;;;;;4991538;28;21057;-74
2021/05/19 07:54:06;;;;;;;35.73;33.93;;;18.00;99.90;;;;;;4991213;28;20455;-72
2021/05/19 07:56:36;;;;;;;33.43;31.90;;;16.80;99.90;;;;;;4991634;28;20505;-72
2021/05/19 07:59:06;;;;;;;32.60;31.10;;;15.90;99.90;;;;;;4991818;28;20465;-72
2021/05/19 08:04:15;;;;;;;27.30;25.90;;;14.90;99.90;;;;;;4970759;28;20947;-72
2021/05/19 08:06:41;;;;;;;28.00;26.80;;;14.30;99.90;;;;;;4990936;28;20808;-72
2021/05/19 08:09:07;;;;;;;27.40;26.20;;;13.90;99.90;;;;;;4991268;28;20796;-71
2021/05/19 08:11:34;;;;;;;25.00;23.83;;;13.90;99.90;;;;;;4991806;28;20490;-71
2021/05/19 08:14:00;;;;;;;22.93;21.70;;;13.70;99.90;;;;;;4991521;28;20461;-71
2021/05/19 08:16:27;;;;;;;22.17;21.17;;;13.60;99.90;;;;;;4991198;28;20451;-72
2021/05/19 08:18:53;;;;;;;20.63;19.53;;;13.90;99.90;;;;;;4990670;28;20557;-72
2021/05/19 08:21:20;;;;;;;19.60;18.43;;;14.00;99.90;;;;;;4980061;28;20808;-72
2021/05/19 08:23:46;;;;;;;17.23;16.40;;;14.50;99.90;;;;;;4971687;28;20458;-72
2021/05/19 08:26:12;;;;;;;16.57;15.67;;;14.70;99.90;;;;;;4974230;28;20483;-72
2021/05/19 08:28:39;;;;;;;15.50;14.80;;;14.80;99.90;;;;;;4971453;28;20459;-72
2021/05/19 08:31:05;;;;;;;16.00;15.40;;;15.40;99.90;;;;;;4971742;28;20498;-71
2021/05/19 08:33:31;;;;;;;15.90;15.07;;;16.10;99.90;;;;;;4971800;28;20463;-72
2021/05/19 08:35:58;;;;;;;14.87;14.27;;;16.80;99.90;;;;;;4971084;28;20952;-73
2021/05/19 08:38:25;;;;;;;14.97;14.37;;;17.60;99.90;;;;;;4971771;28;20534;-73
2021/05/19 08:40:51;;;;;;;15.03;14.23;;;17.80;99.90;;;;;;4971349;28;20945;-72
2021/05/19 08:43:17;;;;;;;14.50;13.80;;;17.80;99.90;;;;;;4971357;28;20456;-73
2021/05/19 08:45:45;;;;;;;14.47;13.87;;;18.00;99.90;;;;;;4971288;28;20451;-72
2021/05/19 08:48:11;;;;;;;14.53;13.80;;;17.60;99.90;;;;;;4963426;28;20562;-72
2021/05/19 08:50:38;;;;;;;15.77;14.97;;;17.40;99.90;;;;;;4971094;28;20491;-72
2021/05/19 08:53:08;;;;;;;15.40;14.60;;;17.40;99.90;;;;;;4971427;28;20455;-72
2021/05/19 08:55:36;;;;;;;15.40;14.70;;;17.60;99.90;;;;;;4971303;28;20462;-72
2021/05/19 08:58:03;;;;;;;15.73;14.93;;;17.60;99.90;;;;;;4971389;28;20459;-72
2021/05/19 09:00:31;;;;;;;15.70;14.80;;;17.20;99.90;;;;;;4971339;28;20849;-72
2021/05/19 09:03:09;;;;;;;16.03;15.10;;;16.80;99.90;;;;;;4970940;28;20487;-72
2021/05/19 09:05:36;;;;;;;15.80;14.90;;;16.70;99.90;;;;;;4970732;28;20546;-72
2021/05/19 09:08:04;;;;;;;15.13;14.23;;;16.50;99.90;;;;;;4969537;28;21459;-73
2021/05/19 09:10:30;;;;;;;14.77;13.97;;;16.50;99.90;;;;;;4971209;28;20495;-72
2021/05/19 09:12:57;;;;;;;15.13;14.30;;;16.30;99.90;;;;;;4970418;28;20950;-72
2021/05/19 09:15:24;;;;;;;14.07;13.37;;;16.70;99.90;;;;;;4970532;28;20888;-73
2021/05/19 09:17:56;;;;;;;12.80;12.20;;;17.50;99.90;;;;;;4970328;28;20580;-72
2021/05/19 09:20:22;;;;;;;16.20;15.20;;;18.30;99.90;;;;;;4972332;28;20474;-72
2021/05/19 09:22:51;;;;;;;14.83;13.73;;;19.10;97.00;;;;;;4990472;28;20455;-72
2021/05/19 09:25:19;;;;;;;14.20;13.50;;;19.40;97.30;;;;;;4990772;28;20532;-72
2021/05/19 09:27:46;;;;;;;15.27;14.27;;;19.90;94.90;;;;;;4990559;28;20546;-73
2021/05/19 09:30:15;;;;;;;14.50;13.80;;;20.60;95.70;;;;;;4990178;28;20486;-73
2021/05/19 09:32:43;;;;;;;14.23;13.50;;;21.40;93.00;;;;;;4990567;28;20798;-73
2021/05/19 09:35:12;;;;;;;13.43;12.90;;;21.40;90.20;;;;;;4990561;28;20454;-73
2021/05/19 09:37:38;;;;;;;12.80;12.30;;;21.10;90.00;;;;;;4990484;28;20446;-72
2021/05/19 09:40:06;;;;;;;13.07;12.47;;;21.40;90.00;;;;;;4990605;28;20829;-72
2021/05/19 09:42:46;;;;;;;12.30;11.90;;;21.80;88.30;;;;;;4990740;28;20478;-73
2021/05/19 09:45:18;;;;;;;13.07;12.63;;;21.90;86.90;;;;;;4990503;28;20865;-73
2021/05/19 09:47:45;;;;;;;13.27;12.67;;;22.50;82.80;;;;;;4991056;28;20820;-73
2021/05/19 09:50:14;;;;;;;13.20;12.47;;;22.70;80.70;;;;;;4990852;28;20494;-72
2021/05/19 09:53:00;;;;;;;12.90;12.30;;;22.90;78.00;;;;;;4990921;28;20878;-72
2021/05/19 09:55:26;;;;;;;12.63;11.97;;;22.40;73.90;;;;;;4990918;28;20873;-73
2021/05/19 09:57:53;;;;;;;11.30;10.80;;;21.90;75.40;;;;;;4992458;28;20455;-72
2021/05/19 10:00:23;;;;;;;11.90;11.50;;;22.40;78.50;;;;;;4994354;28;21076;-72
2021/05/19 10:02:50;;;;;;;12.87;12.30;;;23.00;76.10;;;;;;4994576;28;20486;-73
2021/05/19 10:05:19;;;;;;;11.70;11.30;;;23.90;76.10;;;;;;4994384;28;20451;-72
2021/05/19 10:07:45;;;;;;;12.23;11.50;;;24.10;72.70;;;;;;4994414;28;20455;-73
2021/05/19 10:10:11;;;;;;;12.00;11.60;;;24.40;71.40;;;;;;4994130;28;20482;-72
2021/05/19 10:12:40;;;;;;;12.40;11.90;;;25.00;68.60;;;;;;4994295;28;20522;-73
2021/05/19 10:15:12;;;;;;;12.83;12.43;;;25.70;67.50;;;;;;4994388;28;20451;-73
2021/05/19 10:17:42;;;;;;;12.90;12.40;;;26.40;60.10;;;;;;4994215;28;20455;-73
2021/05/19 10:20:12;;;;;;;12.47;11.97;;;26.20;58.10;;;;;;4994086;28;20505;-72
2021/05/19 10:22:46;;;;;;;11.93;11.43;;;25.90;58.00;;;;;;4974868;28;20464;-73
2021/05/19 10:25:33;;;;;;;12.17;11.77;;;26.30;57.60;;;;;;4974818;28;20447;-73
2021/05/19 10:28:01;;;;;;;11.83;11.30;;;25.40;58.10;;;;;;4974720;28;20554;-72
2021/05/19 10:30:40;;;;;;;12.53;12.03;;;23.70;61.10;;;;;;4974549;28;20866;-72
2021/05/19 10:33:28;;;;;;;11.50;11.10;;;23.20;61.90;;;;;;4974694;28;20467;-72
2021/05/19 10:35:54;;;;;;;11.73;11.13;;;23.00;59.00;;;;;;4974440;28;20462;-72
2021/05/19 10:38:23;;;;;;;11.50;11.10;;;23.40;59.00;;;;;;4974556;28;20455;-72
2021/05/19 10:40:54;;;;;;;12.73;12.10;;;24.10;59.10;;;;;;4974443;28;20455;-72
2021/05/19 10:43:21;;;;;;;11.60;11.30;;;25.00;55.40;;;;;;4974360;28;20455;-71
2021/05/19 10:45:49;;;;;;;12.10;11.70;;;25.00;52.90;;;;;;4974530;28;20521;-71
2021/05/19 10:48:32;;;;;;;11.73;11.23;;;25.20;52.60;;;;;;4974383;28;20462;-71
2021/05/19 10:51:21;;;;;;;11.97;11.57;;;25.40;52.20;;;;;;4972820;28;20491;-72
2021/05/19 10:59:27;;;;;;;12.00;11.60;;;23.40;51.90;;;;;;4993670;28;21091;-71
2021/05/19 11:01:57;;;;;;;12.07;11.67;;;23.50;53.00;;;;;;4993547;28;20821;-71
2021/05/19 11:04:26;;;;;;;13.87;13.17;;;23.70;53.40;;;;;;4993497;28;20558;-71
2021/05/19 11:07:08;;;;;;;12.43;11.83;;;24.30;54.40;;;;;;4993462;28;20490;-71
2021/05/19 11:09:37;;;;;;;11.37;10.87;;;24.00;50.70;;;;;;4993394;28;20478;-71
2021/05/19 11:12:45;;;;;;;12.80;12.30;;;23.50;49.10;;;;;;4993271;28;20486;-71
2021/05/19 11:15:52;;;;;;;12.60;12.20;;;23.40;49.60;;;;;;4993402;28;20883;-71
2021/05/19 11:18:24;;;;;;;12.33;11.30;;;23.70;50.30;;;;;;4993448;28;20914;-71
2021/05/19 11:20:51;;;;;;;13.00;12.10;;;23.70;52.10;;;;;;4993193;28;20444;-71
2021/05/19 11:23:18;;;;;;;12.40;12.00;;;23.00;54.10;;;;;;4993451;28;20970;-70
2021/05/19 11:25:45;;;;;;;12.40;11.90;;;22.20;54.60;;;;;;4993117;28;20674;-70
2021/05/19 11:28:11;;;;;;;12.37;11.87;;;22.80;56.00;;;;;;4992990;28;20467;-70
2021/05/19 11:30:37;;;;;;;13.23;12.30;;;23.10;54.20;;;;;;4993332;28;20495;-70
2021/05/19 11:33:06;;;;;;;12.00;11.50;;;22.40;55.40;;;;;;4993509;28;20450;-70
2021/05/19 11:35:33;;;;;;;12.43;11.93;;;22.30;56.60;;;;;;4993221;28;20465;-71
2021/05/19 11:38:02;;;;;;;12.50;12.10;;;23.10;56.50;;;;;;4993244;28;21143;-71
2021/05/19 11:40:39;;;;;;;12.97;12.17;;;23.00;55.50;;;;;;4992852;28;20447;-71
2021/05/19 11:43:06;;;;;;;11.80;11.40;;;22.40;55.90;;;;;;4992757;28;20450;-70
2021/05/19 11:45:33;;;;;;;12.10;11.40;;;21.80;57.20;;;;;;4992671;28;20486;-71
2021/05/19 11:47:59;;;;;;;12.00;11.60;;;21.90;57.60;;;;;;4992540;28;20450;-71
2021/05/19 11:50:27;;;;;;;12.10;11.23;;;22.80;57.40;;;;;;4992406;28;20486;-70
2021/05/19 11:52:56;;;;;;;11.47;11.07;;;24.20;54.30;;;;;;4992240;28;20451;-70
2021/05/19 11:55:32;;;;;;;13.07;12.57;;;24.70;51.90;;;;;;4992669;28;20457;-70
2021/05/19 11:58:10;;;;;;;13.13;12.37;;;24.40;50.40;;;;;;4992644;28;20968;-70
2021/05/19 12:00:38;;;;;;;12.27;11.67;;;24.40;52.10;;;;;;4992606;28;20541;-70
2021/05/19 12:03:05;;;;;;;11.60;11.20;;;24.20;49.70;;;;;;4992234;28;20482;-70
2021/05/19 12:05:41;;;;;;;11.77;11.30;;;23.70;48.80;;;;;;4992081;28;20462;-70
2021/05/19 12:08:08;;;;;;;11.70;11.30;;;24.40;51.50;;;;;;4992009;28;20462;-70
2021/05/19 12:10:35;;;;;;;12.10;11.70;;;24.40;50.00;;;;;;4992057;28;20859;-71
2021/05/19 12:13:03;;;;;;;12.67;11.97;;;25.00;48.80;;;;;;4992243;28;20958;-70
2021/05/19 12:15:31;;;;;;;11.70;11.30;;;24.80;49.50;;;;;;4992301;28;20517;-70
2021/05/19 12:17:58;;;;;;;11.90;11.60;;;25.70;45.90;;;;;;4992263;28;20462;-70
2021/05/19 12:20:26;;;;;;;12.00;11.60;;;25.30;44.60;;;;;;4991737;28;21103;-70
2021/05/19 12:22:52;;;;;;;12.80;12.30;;;25.50;46.70;;;;;;4992113;28;20474;-71
2021/05/19 12:25:19;;;;;;;13.10;12.30;;;25.70;46.50;;;;;;4992260;28;20455;-71
2021/05/19 12:27:49;;;;;;;12.57;11.97;;;25.90;45.10;;;;;;4992093;28;20457;-70
2021/05/19 12:30:17;;;;;;;12.47;12.07;;;25.80;46.00;;;;;;4987715;28;20447;-71
2021/05/19 12:32:54;;;;;;;12.00;11.60;;;25.40;45.80;;;;;;4980911;28;20446;-71
2021/05/19 12:35:20;;;;;;;13.47;12.97;;;25.30;46.10;;;;;;4980525;28;20439;-70
2021/05/19 12:37:49;;;;;;;13.27;12.47;;;25.30;44.90;;;;;;4980391;28;20963;-71
2021/05/19 12:40:16;;;;;;;12.30;11.90;;;25.90;44.40;;;;;;4981919;28;20807;-71
2021/05/19 12:42:44;;;;;;;12.50;11.80;;;25.60;43.90;;;;;;4980918;28;20459;-71
2021/05/19 12:45:13;;;;;;;12.80;12.30;;;25.60;44.60;;;;;;4979963;28;21297;-70
2021/05/19 12:47:40;;;;;;;12.90;12.50;;;26.10;45.50;;;;;;4980174;28;20508;-71
2021/05/19 12:50:07;;;;;;;13.03;12.50;;;27.10;43.30;;;;;;4979935;28;20525;-70
2021/05/19 12:52:35;;;;;;;14.00;13.30;;;26.80;43.50;;;;;;4981759;28;20493;-70
2021/05/19 12:55:03;;;;;;;12.27;11.87;;;26.50;43.90;;;;;;4980132;28;20443;-70
2021/05/19 12:57:31;;;;;;;12.50;11.90;;;26.50;43.80;;;;;;4981514;28;20448;-71
2021/05/19 13:00:00;;;;;;;12.70;11.87;;;26.70;43.00;;;;;;4978915;28;20953;-70
2021/05/19 13:02:30;;;;;;;11.77;11.40;;;26.70;43.00;;;;;;4971956;28;20998;-70
2021/05/19 13:04:57;;;;;;;12.83;12.33;;;25.70;42.50;;;;;;4972196;28;20459;-70
2021/05/19 13:07:26;;;;;;;12.07;11.40;;;25.30;44.70;;;;;;4972026;28;20493;-70
2021/05/19 13:10:14;;;;;;;12.37;11.87;;;25.70;45.10;;;;;;4971889;28;20460;-70
2021/05/19 13:12:56;;;;;;;12.40;11.80;;;25.00;44.80;;;;;;4972093;28;20455;-70
2021/05/19 13:15:40;;;;;;;12.03;11.63;;;24.80;44.00;;;;;;4972110;28;20463;-70
2021/05/19 13:18:19;;;;;;;12.30;11.70;;;23.40;45.20;;;;;;4971788;28;20501;-70
2021/05/19 13:20:50;;;;;;;12.07;11.47;;;23.30;46.10;;;;;;4972014;28;20502;-70
2021/05/19 13:23:16;;;;;;;12.03;11.63;;;23.10;46.80;;;;;;4971978;28;20460;-70
2021/05/19 13:25:44;;;;;;;11.87;11.47;;;23.20;46.60;;;;;;4971846;28;20455;-70
2021/05/19 13:28:22;;;;;;;11.40;10.70;;;23.00;46.60;;;;;;4972024;28;20447;-69
2021/05/19 13:30:49;;;;;;;12.00;11.47;;;22.50;48.10;;;;;;4979445;28;20511;-69
2021/05/19 13:33:32;;;;;;;13.00;12.47;;;23.30;48.10;;;;;;4982219;28;20450;-70
2021/05/19 13:36:23;;;;;;;12.67;11.93;;;24.10;47.50;;;;;;4983918;28;20448;-70
2021/05/19 13:38:49;;;;;;;13.43;12.73;;;23.90;44.80;;;;;;4983202;28;20466;-70
2021/05/19 13:41:16;;;;;;;12.27;11.77;;;23.80;45.50;;;;;;4983651;28;20469;-70
2021/05/19 13:43:43;;;;;;;11.93;11.53;;;24.10;46.20;;;;;;4981951;28;20440;-70
2021/05/19 13:46:09;;;;;;;11.57;11.07;;;24.70;45.00;;;;;;4975258;28;20455;-70
2021/05/19 13:48:36;;;;;;;12.53;11.90;;;24.50;44.70;;;;;;4975298;28;20448;-70
2021/05/19 13:51:03;;;;;;;12.33;11.83;;;25.20;45.00;;;;;;4975487;28;20483;-71
2021/05/19 13:53:29;;;;;;;12.87;12.30;;;25.40;44.40;;;;;;4981416;28;20446;-70
2021/05/19 13:56:01;;;;;;;12.27;11.77;;;24.60;45.50;;;;;;4994570;28;20501;-70
2021/05/19 13:58:31;;;;;;;11.80;11.30;;;24.00;46.90;;;;;;4994336;28;20471;-70
2021/05/19 14:00:57;;;;;;;12.53;11.73;;;23.40;46.70;;;;;;4994440;28;20871;-70
2021/05/19 14:03:26;;;;;;;12.07;11.67;;;22.80;47.60;;;;;;4994228;28;20475;-69
2021/05/19 14:05:54;;;;;;;12.53;11.70;;;22.80;48.10;;;;;;4994290;28;20548;-70
2021/05/19 14:08:20;;;;;;;12.33;11.77;;;23.10;47.00;;;;;;4994425;28;20973;-69
2021/05/19 14:10:53;;;;;;;11.83;11.33;;;23.10;46.30;;;;;;4994591;28;20490;-70
2021/05/19 14:13:22;;;;;;;10.73;10.30;;;22.90;46.30;;;;;;4994656;28;20452;-70
2021/05/19 14:15:52;;;;;;;11.50;11.00;;;23.30;47.30;;;;;;4994633;28;20550;-70
2021/05/19 14:18:34;;;;;;;11.90;11.40;;;22.90;47.30;;;;;;4994352;28;20817;-70
2021/05/19 14:27:03;;;;;;;13.03;12.33;;;21.70;49.90;;;;;;4953962;28;20446;-69
2021/05/19 14:29:30;;;;;;;11.90;11.50;;;21.10;50.40;;;;;;4993851;28;20467;-69
2021/05/19 14:31:57;;;;;;;11.73;11.23;;;20.70;51.50;;;;;;4993691;28;20856;-70
2021/05/19 14:34:24;;;;;;;11.30;10.90;;;20.90;51.20;;;;;;4993587;28;20477;-69
2021/05/19 14:45:32;;;;;;;12.20;11.60;;;20.50;62.60;;;;;;4993307;28;20484;-69
2021/05/19 15:01:48;;;;;;;11.67;11.07;;;18.90;69.70;;;;;;4943853;28;20925;-69
2021/05/19 15:04:16;;;;;;;10.73;10.23;;;18.80;71.80;;;;;;4973913;28;20495;-69
2021/05/19 15:06:42;;;;;;;11.20;10.60;;;18.70;71.90;;;;;;4990933;28;20841;-69
2021/05/19 15:09:11;;;;;;;11.63;11.13;;;18.50;72.40;;;;;;4993155;28;20449;-69
2021/05/19 15:11:38;;;;;;;11.00;10.50;;;18.30;73.40;;;;;;4993112;28;20490;-69
2021/05/19 15:14:06;;;;;;;11.90;11.10;;;18.20;74.00;;;;;;4993279;28;20470;-70
2021/05/19 15:16:32;;;;;;;11.63;11.13;;;18.10;74.00;;;;;;4993308;28;20513;-69